Time;durP1;ratioP1;P1;durP2;ratioP2;P2;SDS_P1;SDS_P2;PMS_P1;PMS_P2;Temp;Humidity;BMP_temperature;BMP_pressure;BME280_temperature;BME280_humidity;BME280_pressure;Samples;Min_cycle;Max_cycle;Signal;HPM_P1;HPM_P2
2022/12/19 00:01:41;;;;;;;8.73;8.53;;;-3.80;99.90;;;;;;5067859;28;20234;-82
2022/12/19 00:04:19;;;;;;;9.20;8.90;;;-3.80;99.90;;;;;;5066322;28;20245;-82
2022/12/19 00:06:47;;;;;;;8.67;8.47;;;-3.90;99.90;;;;;;5067077;28;20231;-82
2022/12/19 00:09:16;;;;;;;8.80;8.60;;;-3.90;99.90;;;;;;5067424;28;20241;-82
2022/12/19 00:11:45;;;;;;;9.07;8.77;;;-3.90;99.90;;;;;;5066459;28;20241;-81
2022/12/19 00:14:14;;;;;;;8.80;8.60;;;-4.00;99.90;;;;;;5071148;28;20226;-82
2022/12/19 00:16:53;;;;;;;8.70;8.50;;;-4.00;99.90;;;;;;5069124;28;20313;-81
2022/12/19 00:19:23;;;;;;;8.87;8.67;;;-4.00;99.90;;;;;;5066208;28;21198;-82
2022/12/19 00:21:52;;;;;;;9.40;9.10;;;-4.00;99.90;;;;;;5065135;28;20280;-82
2022/12/19 00:24:21;;;;;;;8.77;8.57;;;-4.10;99.90;;;;;;5064476;28;20226;-82
2022/12/19 00:26:50;;;;;;;8.67;8.47;;;-4.00;99.90;;;;;;5064988;28;20291;-82
2022/12/19 00:29:20;;;;;;;9.30;9.00;;;-4.10;99.90;;;;;;5064693;28;20241;-82
2022/12/19 00:31:52;;;;;;;9.30;9.00;;;-4.00;99.90;;;;;;5065443;28;20242;-81
2022/12/19 00:34:19;;;;;;;8.73;8.53;;;-4.00;99.90;;;;;;5065344;28;20219;-81
2022/12/19 00:36:49;;;;;;;8.63;8.43;;;-4.00;99.90;;;;;;5064860;28;20273;-82
2022/12/19 00:39:18;;;;;;;9.27;8.97;;;-4.00;99.90;;;;;;5064146;28;20235;-82
2022/12/19 00:41:47;;;;;;;8.90;8.63;;;-4.00;99.90;;;;;;5056151;28;20298;-82
2022/12/19 00:44:16;;;;;;;8.60;8.40;;;-4.00;99.90;;;;;;5063906;28;20273;-82
2022/12/19 00:46:47;;;;;;;8.57;8.37;;;-4.10;99.90;;;;;;5064836;28;20245;-82
2022/12/19 00:49:18;;;;;;;9.00;8.70;;;-4.10;99.90;;;;;;5064408;28;20234;-82
2022/12/19 00:51:46;;;;;;;9.10;8.80;;;-4.10;99.90;;;;;;5063822;28;20317;-82
2022/12/19 00:54:14;;;;;;;8.73;8.53;;;-4.10;99.90;;;;;;5064786;28;20309;-82
2022/12/19 00:56:44;;;;;;;8.90;8.70;;;-4.10;99.90;;;;;;5065720;28;20334;-82
2022/12/19 00:59:13;;;;;;;8.63;8.43;;;-4.20;99.90;;;;;;5064769;28;20293;-82
2022/12/19 01:01:43;;;;;;;8.60;8.40;;;-4.20;99.90;;;;;;5067506;28;20268;-82
2022/12/19 01:04:15;;;;;;;8.50;8.30;;;-4.10;99.90;;;;;;5078006;28;20235;-82
2022/12/19 01:06:43;;;;;;;8.73;8.53;;;-4.10;99.90;;;;;;5068547;28;20254;-82
2022/12/19 01:09:12;;;;;;;8.50;8.30;;;-4.10;99.90;;;;;;5070104;28;20270;-82
2022/12/19 01:14:28;;;;;;;8.57;8.37;;;-4.10;99.90;;;;;;5065306;28;20695;-82
2022/12/19 01:16:57;;;;;;;8.60;8.40;;;-4.10;99.90;;;;;;5065539;28;20325;-82
2022/12/19 01:22:13;;;;;;;8.40;8.20;;;-4.10;99.90;;;;;;5067378;28;20222;-82
2022/12/19 01:24:43;;;;;;;9.07;8.77;;;-4.10;99.90;;;;;;5067532;28;20261;-82
2022/12/19 01:27:12;;;;;;;8.80;8.60;;;-4.10;99.90;;;;;;5065715;28;20294;-82
2022/12/19 01:29:42;;;;;;;8.90;8.70;;;-4.10;99.90;;;;;;5065468;28;20246;-82
2022/12/19 01:32:11;;;;;;;8.60;8.40;;;-4.10;99.90;;;;;;5065413;28;21007;-82
2022/12/19 01:34:49;;;;;;;9.10;8.80;;;-4.10;99.90;;;;;;5065078;28;20246;-82
2022/12/19 01:37:19;;;;;;;9.10;8.80;;;-4.10;99.90;;;;;;5065127;28;20329;-81
2022/12/19 01:39:51;;;;;;;8.70;8.50;;;-4.10;99.90;;;;;;5064146;28;20333;-82
2022/12/19 01:42:21;;;;;;;8.80;8.60;;;-4.10;99.90;;;;;;5064471;28;20223;-82
2022/12/19 01:45:27;;;;;;;8.63;8.43;;;-4.10;99.90;;;;;;5064283;28;20235;-82
2022/12/19 01:48:03;;;;;;;8.80;8.60;;;-4.10;99.90;;;;;;5002336;28;20248;-82
2022/12/19 01:50:40;;;;;;;8.87;8.67;;;-4.10;99.90;;;;;;5055943;28;20238;-82
2022/12/19 01:53:11;;;;;;;8.83;8.63;;;-4.10;99.90;;;;;;5064716;28;20290;-82
2022/12/19 01:55:40;;;;;;;8.60;8.40;;;-4.10;99.90;;;;;;5067178;28;20372;-82
2022/12/19 01:58:09;;;;;;;8.80;8.60;;;-4.10;99.90;;;;;;5067603;28;20283;-82
2022/12/19 02:00:39;;;;;;;8.70;8.50;;;-4.10;99.90;;;;;;5067098;28;20242;-81
2022/12/19 02:06:04;;;;;;;8.60;8.40;;;-4.10;99.90;;;;;;5065027;28;20230;-82
2022/12/19 02:08:33;;;;;;;8.70;8.50;;;-4.10;99.90;;;;;;5066558;28;20234;-82
2022/12/19 02:11:02;;;;;;;8.70;8.50;;;-4.10;99.90;;;;;;5066426;28;20289;-81
2022/12/19 02:13:32;;;;;;;8.53;8.33;;;-4.10;99.90;;;;;;5066623;28;20230;-81
2022/12/19 02:16:11;;;;;;;8.53;8.33;;;-4.10;99.90;;;;;;5066474;28;20254;-82
2022/12/19 02:18:48;;;;;;;8.60;8.40;;;-4.10;99.90;;;;;;5066465;28;20229;-82
2022/12/19 02:21:28;;;;;;;8.50;8.30;;;-4.10;99.90;;;;;;5067233;28;20243;-82
2022/12/19 02:24:58;;;;;;;8.77;8.57;;;-4.10;99.90;;;;;;5065817;28;20239;-82
2022/12/19 02:28:28;;;;;;;8.73;8.53;;;-4.10;99.90;;;;;;5046723;28;20257;-81
2022/12/19 02:31:08;;;;;;;8.67;8.47;;;-4.10;99.90;;;;;;5066210;28;20381;-82
2022/12/19 02:33:45;;;;;;;8.60;8.40;;;-4.10;99.90;;;;;;5065642;28;20237;-82
2022/12/19 02:36:23;;;;;;;9.00;8.73;;;-4.10;99.90;;;;;;5066057;28;20305;-82
2022/12/19 02:39:02;;;;;;;8.70;8.50;;;-4.10;99.90;;;;;;5066902;28;20318;-82
2022/12/19 02:41:43;;;;;;;8.60;8.40;;;-4.10;99.90;;;;;;5066814;28;20227;-82
2022/12/19 02:44:18;;;;;;;8.80;8.60;;;-4.00;99.90;;;;;;5066829;28;20265;-81
2022/12/19 02:46:57;;;;;;;8.73;8.53;;;-4.00;99.90;;;;;;5068070;28;20242;-82
2022/12/19 02:49:26;;;;;;;8.77;8.57;;;-4.00;99.90;;;;;;5066046;28;20711;-82
2022/12/19 02:51:55;;;;;;;8.67;8.47;;;-4.00;99.90;;;;;;5070814;28;20249;-82
2022/12/19 02:54:24;;;;;;;8.57;8.37;;;-4.00;99.90;;;;;;5070693;28;20309;-82
2022/12/19 02:57:02;;;;;;;8.67;8.47;;;-3.90;99.90;;;;;;5067183;28;20235;-82
2022/12/19 02:59:51;;;;;;;8.53;8.33;;;-3.90;99.90;;;;;;5067040;28;20240;-82
2022/12/19 03:05:24;;;;;;;8.80;8.60;;;-3.90;99.90;;;;;;5066359;28;20241;-82
2022/12/19 03:08:02;;;;;;;8.57;8.37;;;-3.90;99.90;;;;;;5067755;28;20226;-82
2022/12/19 03:10:42;;;;;;;8.67;8.47;;;-3.90;99.90;;;;;;5075717;28;20289;-81
2022/12/19 03:13:18;;;;;;;8.40;8.20;;;-3.90;99.90;;;;;;5073833;28;20262;-81
2022/12/19 03:15:48;;;;;;;8.57;8.37;;;-3.90;99.90;;;;;;5068170;28;20312;-82
2022/12/19 03:18:26;;;;;;;8.63;8.43;;;-3.90;99.90;;;;;;5068280;28;20243;-81
2022/12/19 03:21:04;;;;;;;8.60;8.40;;;-3.90;99.90;;;;;;5076261;28;20230;-81
2022/12/19 03:23:34;;;;;;;8.60;8.40;;;-3.90;99.90;;;;;;5077391;28;20257;-81
2022/12/19 03:28:53;;;;;;;8.70;8.50;;;-3.80;99.90;;;;;;5065041;28;20281;-82
2022/12/19 03:31:28;;;;;;;8.47;8.27;;;-3.80;99.90;;;;;;5065966;28;20269;-82
2022/12/19 03:34:07;;;;;;;8.80;8.60;;;-3.80;99.90;;;;;;5065137;28;20222;-82
2022/12/19 03:36:46;;;;;;;8.63;8.43;;;-3.80;99.90;;;;;;5065480;28;20231;-82
2022/12/19 03:39:16;;;;;;;8.37;8.17;;;-3.80;99.90;;;;;;5064297;28;20235;-82
2022/12/19 03:44:42;;;;;;;8.43;8.23;;;-3.70;99.90;;;;;;5064627;28;20218;-81
2022/12/19 03:47:21;;;;;;;8.60;8.40;;;-3.70;99.90;;;;;;5064829;28;20325;-82
2022/12/19 03:49:52;;;;;;;8.27;8.07;;;-3.70;99.90;;;;;;5063438;28;20230;-81
2022/12/19 03:52:28;;;;;;;8.60;8.40;;;-3.70;99.90;;;;;;5064111;28;20242;-81
2022/12/19 03:55:08;;;;;;;8.30;8.10;;;-3.70;99.90;;;;;;5064177;28;20225;-82
2022/12/19 03:57:44;;;;;;;8.30;8.10;;;-3.70;99.90;;;;;;5064965;28;20234;-81
2022/12/19 04:00:15;;;;;;;8.40;8.20;;;-3.60;99.90;;;;;;5064212;28;20257;-81
2022/12/19 04:02:53;;;;;;;8.27;8.07;;;-3.60;99.90;;;;;;5063531;28;20265;-82
2022/12/19 04:05:31;;;;;;;8.40;8.20;;;-3.60;99.90;;;;;;5064560;28;20233;-81
2022/12/19 04:08:09;;;;;;;8.13;7.93;;;-3.50;99.90;;;;;;5063764;28;20241;-81
2022/12/19 04:10:46;;;;;;;8.27;8.07;;;-3.50;99.90;;;;;;5063560;28;20349;-81
2022/12/19 04:13:18;;;;;;;8.23;8.03;;;-3.50;99.90;;;;;;5064578;28;20262;-81
2022/12/19 04:15:54;;;;;;;8.50;8.30;;;-3.40;99.90;;;;;;5064701;28;20233;-81
2022/12/19 04:18:23;;;;;;;8.00;7.80;;;-3.40;99.90;;;;;;5064854;28;20226;-81
2022/12/19 04:21:10;;;;;;;7.80;7.60;;;-3.40;99.90;;;;;;5064851;28;20416;-82
2022/12/19 04:23:48;;;;;;;8.53;8.33;;;-3.40;99.90;;;;;;5063733;28;20227;-81
2022/12/19 04:26:19;;;;;;;8.20;8.00;;;-3.50;99.90;;;;;;5063844;28;20330;-81
2022/12/19 04:28:50;;;;;;;8.00;7.80;;;-3.50;99.90;;;;;;5064336;28;20235;-81
2022/12/19 04:31:20;;;;;;;7.90;7.70;;;-3.40;99.90;;;;;;5064827;28;20262;-82
2022/12/19 04:33:47;;;;;;;7.90;7.70;;;-3.50;99.90;;;;;;5065031;28;20269;-82
2022/12/19 04:36:18;;;;;;;8.27;8.07;;;-3.40;99.90;;;;;;5064978;28;20273;-81
2022/12/19 04:38:46;;;;;;;8.03;7.83;;;-3.40;99.90;;;;;;5065350;28;20262;-81
2022/12/19 04:41:15;;;;;;;7.93;7.73;;;-3.40;99.90;;;;;;5064800;28;20234;-81
2022/12/19 04:43:43;;;;;;;7.60;7.40;;;-3.40;99.90;;;;;;5063953;28;20237;-81
2022/12/19 04:46:15;;;;;;;8.10;7.90;;;-3.40;99.90;;;;;;5063216;28;20295;-81
2022/12/19 04:48:43;;;;;;;7.93;7.73;;;-3.30;99.90;;;;;;5064799;28;20254;-81
2022/12/19 04:51:12;;;;;;;8.10;7.90;;;-3.30;99.90;;;;;;5065065;28;20342;-81
2022/12/19 04:53:50;;;;;;;8.10;7.90;;;-3.20;99.90;;;;;;5064602;28;20261;-81
2022/12/19 04:56:20;;;;;;;8.00;7.80;;;-3.20;99.90;;;;;;5065586;28;20219;-81
2022/12/19 04:58:49;;;;;;;7.83;7.63;;;-3.20;99.90;;;;;;5073450;28;20242;-81
2022/12/19 05:01:19;;;;;;;8.00;7.80;;;-3.20;99.90;;;;;;5068569;28;20262;-81
2022/12/19 05:03:48;;;;;;;8.20;8.00;;;-3.20;99.90;;;;;;5065557;28;20294;-81
2022/12/19 05:06:18;;;;;;;8.40;8.20;;;-3.10;99.90;;;;;;5064852;28;20375;-81
2022/12/19 05:11:33;;;;;;;8.03;7.83;;;-3.10;99.90;;;;;;5114285;22;20299;-84
2022/12/19 05:14:03;;;;;;;7.90;7.70;;;-3.10;99.90;;;;;;5096135;28;20300;-82
2022/12/19 05:16:35;;;;;;;7.50;7.30;;;-3.20;99.90;;;;;;5098884;28;20229;-81
2022/12/19 05:19:03;;;;;;;7.90;7.70;;;-3.10;99.90;;;;;;5096890;28;20248;-82
2022/12/19 05:21:30;;;;;;;7.90;7.70;;;-3.10;99.90;;;;;;5102537;28;20248;-81
2022/12/19 05:24:14;;;;;;;7.53;7.33;;;-3.10;99.90;;;;;;5102539;28;20253;-82
2022/12/19 05:26:42;;;;;;;7.73;7.53;;;-3.10;99.90;;;;;;5103367;28;20307;-82
2022/12/19 05:29:10;;;;;;;7.70;7.50;;;-3.10;99.90;;;;;;5106358;28;20233;-81
2022/12/19 05:31:38;;;;;;;7.90;7.70;;;-3.10;99.90;;;;;;5107423;28;20233;-82
2022/12/19 05:34:08;;;;;;;7.77;7.57;;;-3.10;99.90;;;;;;5097385;28;20319;-82
2022/12/19 05:36:37;;;;;;;7.57;7.37;;;-3.00;99.90;;;;;;5107564;28;20315;-82
2022/12/19 05:39:10;;;;;;;7.60;7.40;;;-3.10;99.90;;;;;;5107218;28;20305;-84
2022/12/19 05:41:41;;;;;;;7.50;7.30;;;-3.00;99.90;;;;;;5089544;28;20230;-84
2022/12/19 05:44:10;;;;;;;7.53;7.33;;;-3.00;99.90;;;;;;5097949;28;20229;-84
2022/12/19 05:46:37;;;;;;;7.70;7.50;;;-3.00;99.90;;;;;;5096800;28;20303;-84
2022/12/19 05:49:06;;;;;;;8.00;7.80;;;-3.00;99.90;;;;;;5087161;28;20253;-84
2022/12/19 05:51:38;;;;;;;7.60;7.40;;;-2.90;99.90;;;;;;5095582;28;20237;-84
2022/12/19 05:54:06;;;;;;;7.90;7.70;;;-2.90;99.90;;;;;;5095683;28;20233;-84
2022/12/19 05:56:35;;;;;;;7.57;7.37;;;-2.90;99.90;;;;;;5087744;28;20221;-84
2022/12/19 05:59:07;;;;;;;7.63;7.43;;;-2.90;99.90;;;;;;5085822;28;20296;-84
2022/12/19 06:01:34;;;;;;;7.63;7.43;;;-2.90;99.90;;;;;;5086433;28;20234;-84
2022/12/19 06:04:03;;;;;;;7.60;7.40;;;-2.90;99.90;;;;;;5087943;28;20245;-84
2022/12/19 06:06:33;;;;;;;7.60;7.40;;;-2.80;99.90;;;;;;5088608;28;20237;-85
2022/12/19 06:09:03;;;;;;;7.70;7.50;;;-2.80;99.90;;;;;;5089168;28;20222;-83
2022/12/19 06:11:31;;;;;;;7.70;7.50;;;-2.80;99.90;;;;;;5083505;28;20329;-84
2022/12/19 06:14:03;;;;;;;7.23;7.03;;;-2.70;99.90;;;;;;5084804;28;20328;-84
2022/12/19 06:16:30;;;;;;;7.60;7.40;;;-2.70;99.90;;;;;;5083555;28;20222;-84
2022/12/19 06:18:59;;;;;;;7.80;7.60;;;-2.70;99.90;;;;;;5084242;28;20230;-84
2022/12/19 06:21:29;;;;;;;7.60;7.40;;;-2.70;99.90;;;;;;5085240;28;20266;-84
2022/12/19 06:23:58;;;;;;;7.73;7.53;;;-2.80;99.90;;;;;;5087417;28;20234;-84
2022/12/19 06:26:30;;;;;;;7.97;7.77;;;-2.80;99.90;;;;;;5086383;28;20246;-84
2022/12/19 06:28:58;;;;;;;7.67;7.47;;;-2.80;99.90;;;;;;5091871;28;20226;-84
2022/12/19 06:31:30;;;;;;;7.50;7.30;;;-2.80;99.90;;;;;;5088229;28;20237;-84
2022/12/19 06:36:42;;;;;;;7.70;7.50;;;-2.70;99.90;;;;;;5087597;28;20218;-82
2022/12/19 06:39:13;;;;;;;7.60;7.40;;;-2.70;99.90;;;;;;5085723;28;20320;-84
2022/12/19 06:44:26;;;;;;;7.50;7.30;;;-2.60;99.90;;;;;;5102279;28;20289;-83
2022/12/19 06:46:56;;;;;;;7.60;7.40;;;-2.60;99.90;;;;;;5108331;28;20234;-83
2022/12/19 06:49:31;;;;;;;7.77;7.57;;;-2.60;99.90;;;;;;5112614;28;20230;-82
2022/12/19 06:51:59;;;;;;;7.70;7.50;;;-2.60;99.90;;;;;;5111410;28;20259;-81
2022/12/19 06:54:27;;;;;;;7.30;7.10;;;-2.50;99.90;;;;;;5110421;28;20262;-81
2022/12/19 06:56:56;;;;;;;7.30;7.10;;;-2.50;99.90;;;;;;5108875;28;20229;-82
2022/12/19 06:59:26;;;;;;;7.50;7.30;;;-2.50;99.90;;;;;;5108696;28;20234;-82
2022/12/19 07:02:01;;;;;;;7.57;7.37;;;-2.50;99.90;;;;;;5110393;28;20233;-81
2022/12/19 07:04:34;;;;;;;7.70;7.50;;;-2.50;99.90;;;;;;5107248;28;20232;-82
2022/12/19 07:07:01;;;;;;;7.57;7.37;;;-2.50;99.90;;;;;;5092938;28;20246;-81
2022/12/19 07:09:31;;;;;;;7.87;7.67;;;-2.50;99.90;;;;;;5088158;28;20268;-83
2022/12/19 07:12:02;;;;;;;7.90;7.70;;;-2.40;99.90;;;;;;5085568;28;20238;-82
2022/12/19 07:14:32;;;;;;;8.20;8.00;;;-2.40;99.90;;;;;;5087460;28;20272;-84
2022/12/19 07:17:12;;;;;;;8.00;7.80;;;-2.40;99.90;;;;;;5090610;28;20222;-84
2022/12/19 07:19:44;;;;;;;8.20;8.00;;;-2.40;99.90;;;;;;5084479;28;20229;-81
2022/12/19 07:22:12;;;;;;;8.20;8.00;;;-2.40;99.90;;;;;;5088864;28;20255;-83
2022/12/19 07:24:45;;;;;;;8.30;8.10;;;-2.40;99.90;;;;;;5086701;28;20234;-82
2022/12/19 07:27:13;;;;;;;8.00;7.80;;;-2.40;99.90;;;;;;5086059;28;20297;-82
2022/12/19 07:29:42;;;;;;;8.00;7.80;;;-2.40;99.90;;;;;;5085753;28;20253;-82
2022/12/19 07:32:15;;;;;;;7.90;7.70;;;-2.40;99.90;;;;;;5086837;28;20234;-82
2022/12/19 07:34:43;;;;;;;8.17;7.97;;;-2.40;99.90;;;;;;5086371;28;20226;-82
2022/12/19 07:37:11;;;;;;;7.80;7.60;;;-2.30;99.90;;;;;;5085772;28;20253;-82
2022/12/19 07:39:38;;;;;;;7.87;7.67;;;-2.30;99.90;;;;;;5085602;28;20256;-83
2022/12/19 07:42:06;;;;;;;7.90;7.70;;;-2.30;99.90;;;;;;5085024;28;20245;-82
2022/12/19 07:44:38;;;;;;;7.83;7.63;;;-2.30;99.90;;;;;;5084044;28;20291;-83
2022/12/19 07:47:06;;;;;;;8.02;7.82;;;-2.30;99.90;;;;;;5071361;28;20436;-81
2022/12/19 07:49:35;;;;;;;8.00;7.80;;;-2.20;99.90;;;;;;5064910;28;20241;-81
2022/12/19 07:52:02;;;;;;;7.77;7.57;;;-2.20;99.90;;;;;;5071115;28;20236;-81
2022/12/19 07:54:31;;;;;;;8.07;7.87;;;-2.20;99.90;;;;;;5062028;28;20234;-81
2022/12/19 07:57:02;;;;;;;8.00;7.80;;;-2.10;99.90;;;;;;5061283;28;20235;-81
2022/12/19 07:59:30;;;;;;;7.93;7.73;;;-2.10;99.90;;;;;;5061843;28;20239;-81
2022/12/19 08:01:58;;;;;;;8.10;7.90;;;-2.10;99.90;;;;;;5070612;28;20990;-80
2022/12/19 08:04:26;;;;;;;7.70;7.50;;;-2.10;99.90;;;;;;5068110;28;20226;-79
2022/12/19 08:07:01;;;;;;;8.17;7.97;;;-2.10;99.90;;;;;;5081720;28;20296;-84
2022/12/19 08:09:29;;;;;;;8.10;7.90;;;-2.00;99.90;;;;;;5078364;28;20250;-83
2022/12/19 08:11:59;;;;;;;8.17;7.97;;;-2.00;99.90;;;;;;5063778;28;20273;-83
2022/12/19 08:14:27;;;;;;;7.80;7.60;;;-2.00;99.90;;;;;;5066002;28;20230;-83
2022/12/19 08:16:54;;;;;;;7.83;7.63;;;-2.00;99.90;;;;;;5069402;28;20235;-82
2022/12/19 08:19:22;;;;;;;7.73;7.53;;;-2.00;99.90;;;;;;5066285;28;20247;-82
2022/12/19 08:21:58;;;;;;;7.63;7.43;;;-1.90;99.90;;;;;;5068073;28;20235;-83
2022/12/19 08:24:25;;;;;;;7.77;7.57;;;-1.90;99.90;;;;;;5078277;28;20215;-83
2022/12/19 08:26:53;;;;;;;7.20;7.00;;;-1.90;99.90;;;;;;5079434;28;20259;-82
2022/12/19 08:29:23;;;;;;;7.20;7.00;;;-1.90;99.90;;;;;;5078410;28;20274;-81
2022/12/19 08:31:51;;;;;;;7.80;7.60;;;-1.90;99.90;;;;;;5072488;28;20261;-82
2022/12/19 08:34:20;;;;;;;8.00;7.80;;;-1.80;99.90;;;;;;5070687;28;20259;-82
2022/12/19 08:36:48;;;;;;;8.10;7.90;;;-1.80;99.90;;;;;;5070034;28;20252;-82
2022/12/19 08:39:17;;;;;;;8.17;7.97;;;-1.80;99.90;;;;;;5069702;28;20233;-81
2022/12/19 08:41:46;;;;;;;8.10;7.90;;;-1.70;99.90;;;;;;5069011;28;20244;-82
2022/12/19 08:44:15;;;;;;;8.20;8.00;;;-1.60;99.90;;;;;;5069392;28;20241;-81
2022/12/19 08:46:43;;;;;;;7.70;7.50;;;-1.60;99.90;;;;;;5068500;28;20244;-82
2022/12/19 08:49:12;;;;;;;8.20;8.00;;;-1.60;99.90;;;;;;5068037;28;20294;-80
2022/12/19 08:51:40;;;;;;;8.10;7.90;;;-1.60;99.90;;;;;;5068115;28;20232;-80
2022/12/19 08:54:08;;;;;;;8.30;8.10;;;-1.60;99.90;;;;;;5067816;28;20250;-81
2022/12/19 08:56:37;;;;;;;8.37;8.17;;;-1.60;99.90;;;;;;5068117;28;20227;-81
2022/12/19 08:59:05;;;;;;;7.70;7.50;;;-1.60;99.90;;;;;;5066864;28;20292;-81
2022/12/19 09:01:33;;;;;;;8.13;7.93;;;-1.50;99.90;;;;;;5066648;28;20236;-81
2022/12/19 09:04:01;;;;;;;8.40;8.20;;;-1.50;99.90;;;;;;5067013;28;20227;-79
2022/12/19 09:06:29;;;;;;;8.30;8.10;;;-1.40;99.90;;;;;;5073419;28;20244;-81
2022/12/19 09:08:56;;;;;;;8.73;8.53;;;-1.40;99.90;;;;;;5086117;28;20229;-82
2022/12/19 09:11:25;;;;;;;8.40;8.20;;;-1.40;99.90;;;;;;5083719;28;20267;-82
2022/12/19 09:13:57;;;;;;;8.40;8.20;;;-1.40;99.90;;;;;;5084831;28;20231;-81
2022/12/19 09:16:26;;;;;;;8.37;8.17;;;-1.30;99.90;;;;;;5085234;28;20268;-80
2022/12/19 09:18:57;;;;;;;8.27;8.07;;;-1.30;99.90;;;;;;5086897;28;20270;-81
2022/12/19 09:21:28;;;;;;;8.30;8.10;;;-1.30;99.90;;;;;;5087935;28;20335;-81
2022/12/19 09:23:58;;;;;;;8.20;8.00;;;-1.20;99.90;;;;;;5085587;28;20312;-81
2022/12/19 09:26:27;;;;;;;8.27;8.07;;;-1.20;99.90;;;;;;5085776;28;20238;-81
2022/12/19 09:28:58;;;;;;;8.30;8.10;;;-1.20;99.90;;;;;;5085738;28;20265;-81
2022/12/19 09:31:26;;;;;;;8.27;8.07;;;-1.20;99.90;;;;;;5086783;28;20244;-82
2022/12/19 09:33:54;;;;;;;8.70;8.50;;;-1.20;99.90;;;;;;5086723;28;20332;-81
2022/12/19 09:36:24;;;;;;;8.60;8.40;;;-1.10;99.90;;;;;;5086052;28;20244;-81
2022/12/19 09:38:54;;;;;;;8.00;7.80;;;-1.10;99.90;;;;;;5089591;28;20240;-81
2022/12/19 09:42:07;;;;;;;8.40;8.20;;;-1.10;99.90;;;;;;5092723;28;20239;-81
2022/12/19 09:45:05;;;;;;;8.13;7.93;;;-1.10;99.90;;;;;;5031675;28;20222;-80
2022/12/19 09:47:34;;;;;;;8.20;8.00;;;-1.00;99.90;;;;;;5089753;28;20250;-81
2022/12/19 09:50:04;;;;;;;8.13;7.93;;;-1.00;99.90;;;;;;5085695;28;20236;-81
2022/12/19 09:52:39;;;;;;;8.07;7.87;;;-1.00;99.90;;;;;;5068523;28;20267;-81
2022/12/19 09:55:18;;;;;;;8.50;8.30;;;-1.00;99.90;;;;;;5065660;28;20213;-83
2022/12/19 09:57:54;;;;;;;8.60;8.40;;;-0.90;99.90;;;;;;5066163;28;20250;-81
2022/12/19 10:00:34;;;;;;;8.50;8.30;;;-0.90;99.90;;;;;;5066154;28;20256;-83
2022/12/19 10:03:12;;;;;;;8.70;8.50;;;-0.90;99.90;;;;;;5063936;28;20238;-83
2022/12/19 10:05:47;;;;;;;8.40;8.20;;;-0.80;99.90;;;;;;5065681;28;20201;-81
2022/12/19 10:08:18;;;;;;;8.37;8.17;;;-0.70;99.90;;;;;;5068529;28;20339;-83
2022/12/19 10:11:02;;;;;;;8.27;8.07;;;-0.70;99.90;;;;;;5072246;28;20238;-83
2022/12/19 10:13:48;;;;;;;8.50;8.30;;;-0.60;99.90;;;;;;5068813;28;20235;-81
2022/12/19 10:16:26;;;;;;;8.50;8.30;;;-0.60;99.90;;;;;;5080630;28;20254;-82
2022/12/19 10:18:57;;;;;;;8.80;8.60;;;-0.60;99.90;;;;;;5081630;28;20244;-81
2022/12/19 10:21:39;;;;;;;8.60;8.40;;;-0.50;99.90;;;;;;5081534;28;20261;-83
2022/12/19 10:24:56;;;;;;;8.90;8.70;;;-0.40;99.90;;;;;;5092500;28;20243;-82
2022/12/19 10:27:33;;;;;;;9.07;8.77;;;-0.40;99.90;;;;;;5101170;28;20228;-83
2022/12/19 10:30:13;;;;;;;8.80;8.60;;;-0.40;99.90;;;;;;5101950;28;20240;-82
2022/12/19 10:32:58;;;;;;;9.10;8.80;;;-0.40;99.90;;;;;;5102563;28;20217;-82
2022/12/19 10:35:33;;;;;;;9.30;9.00;;;-0.40;99.90;;;;;;5101844;28;20288;-82
2022/12/19 10:38:19;;;;;;;9.53;9.23;;;-0.30;99.90;;;;;;5094863;28;20225;-82
2022/12/19 10:40:52;;;;;;;9.20;8.90;;;-0.30;99.90;;;;;;5093117;28;20218;-82
2022/12/19 10:43:31;;;;;;;9.50;9.20;;;-0.30;99.90;;;;;;5094147;28;20324;-82
2022/12/19 10:46:02;;;;;;;9.20;8.90;;;-0.20;99.90;;;;;;5095332;28;20238;-82
2022/12/19 10:48:32;;;;;;;9.30;9.00;;;-0.30;99.90;;;;;;5102287;28;20249;-82
2022/12/19 10:51:00;;;;;;;9.20;8.90;;;-0.30;99.90;;;;;;5102015;28;20214;-84
2022/12/19 10:53:30;;;;;;;9.23;8.93;;;-0.20;99.90;;;;;;5102392;28;20213;-83
2022/12/19 10:56:03;;;;;;;9.50;9.20;;;-0.10;99.90;;;;;;5102421;28;20257;-83
2022/12/19 10:58:35;;;;;;;9.27;8.97;;;-0.10;99.90;;;;;;5101633;28;20226;-83
2022/12/19 11:01:14;;;;;;;9.17;8.87;;;0.00;99.90;;;;;;5099714;28;20237;-83
2022/12/19 11:03:49;;;;;;;9.30;9.00;;;0.00;99.90;;;;;;5102638;28;20208;-82
2022/12/19 11:06:50;;;;;;;9.60;9.30;;;0.00;99.90;;;;;;5102127;28;20259;-82
2022/12/19 11:09:26;;;;;;;9.40;9.10;;;0.00;99.90;;;;;;5102194;28;20232;-81
2022/12/19 11:12:11;;;;;;;9.50;9.20;;;-0.10;99.90;;;;;;5101412;22;20234;-84
2022/12/19 11:14:44;;;;;;;8.97;8.70;;;-0.10;99.90;;;;;;5068701;28;20229;-84
2022/12/19 11:17:31;;;;;;;9.20;8.90;;;0.00;99.90;;;;;;5068664;28;20238;-85
2022/12/19 11:20:17;;;;;;;9.20;8.90;;;0.00;99.90;;;;;;5071863;28;20272;-84
2022/12/19 11:22:55;;;;;;;8.80;8.60;;;0.10;99.90;;;;;;5048913;28;20261;-84
2022/12/19 11:25:42;;;;;;;9.30;9.00;;;0.20;99.90;;;;;;5045911;28;20237;-84
2022/12/19 11:28:22;;;;;;;9.43;9.13;;;0.20;99.90;;;;;;5046088;28;20231;-84
2022/12/19 11:30:59;;;;;;;9.80;9.50;;;0.20;99.90;;;;;;5045834;28;20239;-85
2022/12/19 11:33:28;;;;;;;9.20;8.90;;;0.20;99.90;;;;;;5045681;28;20231;-85
2022/12/19 11:36:06;;;;;;;9.50;9.20;;;0.30;99.90;;;;;;5046857;28;20242;-85
2022/12/19 11:38:40;;;;;;;9.40;9.10;;;0.30;99.90;;;;;;5047064;28;20241;-84
2022/12/19 11:41:17;;;;;;;9.40;9.10;;;0.30;99.90;;;;;;5046601;28;20258;-84
2022/12/19 11:43:55;;;;;;;9.23;8.93;;;0.40;99.90;;;;;;5047141;28;20247;-84
2022/12/19 11:46:43;;;;;;;9.40;9.10;;;0.50;99.90;;;;;;5046778;28;20227;-82
2022/12/19 11:49:29;;;;;;;8.97;8.73;;;0.60;99.90;;;;;;5054930;28;20273;-83
2022/12/19 11:52:07;;;;;;;8.90;8.70;;;0.60;99.90;;;;;;5046742;28;20253;-83
2022/12/19 11:54:46;;;;;;;8.77;8.57;;;0.60;99.90;;;;;;5046911;28;20257;-83
2022/12/19 11:57:14;;;;;;;8.47;8.27;;;0.60;99.90;;;;;;5037943;28;20318;-86
2022/12/19 11:59:43;;;;;;;8.40;8.20;;;0.60;99.90;;;;;;5046356;28;20235;-82
2022/12/19 12:02:57;;;;;;;8.37;8.17;;;0.60;99.90;;;;;;5038192;28;20243;-83
2022/12/19 12:05:44;;;;;;;8.23;8.03;;;0.70;99.90;;;;;;5016188;28;20313;-82
2022/12/19 12:08:48;;;;;;;8.60;8.40;;;0.80;99.90;;;;;;5041472;28;20238;-83
2022/12/19 12:11:26;;;;;;;8.90;8.70;;;0.80;99.90;;;;;;5032768;28;20731;-82
2022/12/19 12:14:22;;;;;;;9.20;8.90;;;0.80;99.90;;;;;;5045361;28;20223;-83
2022/12/19 12:20:15;;;;;;;8.40;8.20;;;0.80;99.90;;;;;;5024894;28;20356;-84
2022/12/19 12:23:10;;;;;;;8.43;8.23;;;0.80;99.90;;;;;;5026513;28;20299;-83
2022/12/19 12:25:59;;;;;;;8.40;8.20;;;0.80;99.90;;;;;;5026042;28;20239;-82
2022/12/19 12:29:04;;;;;;;8.50;8.30;;;0.80;99.90;;;;;;5024839;28;20302;-83
2022/12/19 12:31:49;;;;;;;9.20;8.90;;;0.80;99.90;;;;;;5026904;28;20240;-85
2022/12/19 12:34:44;;;;;;;8.93;8.63;;;0.80;99.90;;;;;;5029646;28;20269;-84
2022/12/19 12:37:34;;;;;;;8.70;8.50;;;0.80;99.90;;;;;;5039062;28;20247;-86
2022/12/19 12:40:37;;;;;;;8.57;8.37;;;0.80;99.90;;;;;;5028395;28;20248;-84
2022/12/19 12:43:24;;;;;;;8.67;8.47;;;0.90;99.90;;;;;;5031858;28;20234;-83
2022/12/19 12:45:52;;;;;;;8.10;7.90;;;0.90;99.90;;;;;;5041382;28;20246;-84
2022/12/19 12:48:32;;;;;;;8.40;8.20;;;1.00;99.90;;;;;;5049509;28;20235;-84
2022/12/19 12:51:04;;;;;;;8.13;7.93;;;1.00;99.90;;;;;;5048432;28;20235;-84
2022/12/19 12:53:38;;;;;;;8.33;8.13;;;1.00;99.90;;;;;;5046723;28;20219;-83
2022/12/19 12:56:16;;;;;;;8.30;8.10;;;1.10;99.90;;;;;;5046959;28;20316;-84
2022/12/19 12:59:21;;;;;;;8.10;7.90;;;1.10;99.90;;;;;;5046870;28;20227;-83
2022/12/19 13:01:54;;;;;;;8.40;8.20;;;1.10;99.90;;;;;;5046116;28;20233;-84
2022/12/19 13:04:29;;;;;;;8.90;8.70;;;1.10;99.90;;;;;;5046813;28;20588;-84
2022/12/19 13:07:25;;;;;;;8.90;8.70;;;1.10;99.90;;;;;;5047757;28;20239;-84
2022/12/19 13:13:01;;;;;;;8.60;8.40;;;1.20;99.90;;;;;;5045698;28;20223;-83
2022/12/19 13:15:46;;;;;;;8.80;8.60;;;1.20;99.90;;;;;;5045738;28;20246;-84
2022/12/19 13:18:33;;;;;;;8.50;8.30;;;1.20;99.90;;;;;;5046244;28;20241;-83
2022/12/19 13:21:03;;;;;;;8.83;8.63;;;1.30;99.90;;;;;;5045272;28;20254;-84
2022/12/19 13:26:56;;;;;;;9.00;8.70;;;1.30;99.90;;;;;;5043536;28;20219;-82
2022/12/19 13:29:32;;;;;;;8.93;8.70;;;1.40;99.90;;;;;;5052275;28;20310;-83
2022/12/19 13:32:21;;;;;;;8.70;8.50;;;1.50;99.90;;;;;;5047407;28;20262;-83
2022/12/19 13:34:57;;;;;;;8.47;8.27;;;1.50;99.90;;;;;;5046389;28;20226;-83
2022/12/19 13:37:30;;;;;;;8.43;8.23;;;1.60;99.90;;;;;;5028849;28;20236;-83
2022/12/19 13:40:33;;;;;;;8.37;8.17;;;1.60;99.90;;;;;;5038424;28;20247;-82
2022/12/19 13:46:01;;;;;;;8.70;8.50;;;1.70;99.90;;;;;;5034501;28;20224;-83
2022/12/19 13:48:36;;;;;;;8.80;8.60;;;1.70;99.90;;;;;;5043433;28;20261;-83
2022/12/19 13:51:14;;;;;;;8.67;8.47;;;1.80;99.90;;;;;;5046334;28;20235;-83
2022/12/19 13:53:44;;;;;;;8.93;8.70;;;1.70;99.90;;;;;;5043626;28;20282;-82
2022/12/19 13:56:23;;;;;;;8.93;8.70;;;1.70;99.90;;;;;;5049876;28;20208;-83
2022/12/19 13:58:54;;;;;;;8.80;8.60;;;1.70;99.90;;;;;;5031886;28;20283;-83
2022/12/19 14:01:30;;;;;;;9.20;8.90;;;1.70;99.90;;;;;;5029916;28;20235;-83
2022/12/19 14:04:08;;;;;;;9.30;9.00;;;1.70;99.90;;;;;;5048362;28;20227;-82